PWSweather.com
Personal Weather Stations
Station Observations
STPETERS
BroadstairsGB

BroadstairsGB

Lat: 51.37, Lon: 1.423

Elevation: 141

Station Type: WH1081

Latest ConditionsUpdated 7:00:01 AM GMT Wednesday, Jul 30, 2014
Currently Today's Max Today's Min Today's Average
Temperature 63.5°F17.5°C 64.9°F18.3°C 61.3°F16.3°C 63.3°F17.4°C
Dew Point 55.1°F12.8°C 61.6°F16.4°C 53.9°F12.2°C 56.5°F13.6°C
Winds 7.0 mph NW11.3 kmh NW 11.6 mph N18.7 kmh N - 7.3 mph 11.7 kmh
Wind Gusts 8.3 mph13.4 kmh 16.8 mph27.0 kmh - -
Humidity 74% 93% 69% 78%
Pressure 29.96 in1014.6 mb 29.96 in1014.6 mb 29.93 in1013.5 mb -
Hour Temp Dew Point Humidity Winds Wind Gusts Pressure Precip Precip Rate Daily Precip Total
07:00 AM 63.5°F17.5°C 55.1°F12.8°C 74% 7.0 mph NW11.3 kmh NW 8.3 mph13.4 kmh 29.96 in1014.6 mb 0.00 in0.0 mm 0.00 in/hr0.0 mm/hr 0.00 in0.0 mm
06:45 AM 63.1°F17.3°C 54.7°F12.6°C 74% 8.0 mph NNW12.9 kmh NNW 12.1 mph19.5 kmh 29.96 in1014.6 mb 0.00 in0.0 mm 0.00 in/hr0.0 mm/hr 0.00 in0.0 mm
06:30 AM 63.1°F17.3°C 55.5°F13.1°C 76% 6.9 mph NW11.1 kmh NW 10.7 mph17.2 kmh 29.95 in1014.2 mb 0.00 in0.0 mm 0.00 in/hr0.0 mm/hr 0.00 in0.0 mm
06:15 AM 63.3°F17.4°C 55.6°F13.1°C 76% 6.5 mph NW10.5 kmh NW 10.7 mph17.2 kmh 29.95 in1014.2 mb 0.00 in0.0 mm 0.00 in/hr0.0 mm/hr 0.00 in0.0 mm
06:00 AM 62.8°F17.1°C 55.1°F12.8°C 76% 8.1 mph NW13.0 kmh NW 10.7 mph17.2 kmh 29.95 in1014.2 mb 0.00 in0.0 mm 0.00 in/hr0.0 mm/hr 0.00 in0.0 mm
05:45 AM 62.4°F16.9°C 54.8°F12.7°C 76% 7.1 mph NNW11.4 kmh NNW 9.8 mph15.8 kmh 29.95 in1014.2 mb 0.00 in0.0 mm 0.00 in/hr0.0 mm/hr 0.00 in0.0 mm
05:30 AM 62.4°F16.9°C 54.4°F12.4°C 75% 7.4 mph NNW11.9 kmh NNW 10.7 mph17.2 kmh 29.95 in1014.2 mb 0.00 in0.0 mm 0.00 in/hr0.0 mm/hr 0.00 in0.0 mm
05:15 AM 62.2°F16.8°C 54.2°F12.3°C 75% 8.3 mph NW13.4 kmh NW 13.0 mph20.9 kmh 29.95 in1014.2 mb 0.00 in0.0 mm 0.00 in/hr0.0 mm/hr 0.00 in0.0 mm
05:00 AM 62.6°F17.0°C 54.2°F12.3°C 74% 10.0 mph NW16.1 kmh NW 12.1 mph19.5 kmh 29.94 in1013.9 mb 0.00 in0.0 mm 0.00 in/hr0.0 mm/hr 0.00 in0.0 mm
04:45 AM 62.8°F17.1°C 54.4°F12.4°C 74% 7.8 mph NW12.6 kmh NW 12.1 mph19.5 kmh 29.94 in1013.9 mb 0.00 in0.0 mm 0.00 in/hr0.0 mm/hr 0.00 in0.0 mm
04:30 AM 63.3°F17.4°C 54.9°F12.7°C 74% 7.9 mph NNW12.7 kmh NNW 13.6 mph21.9 kmh 29.94 in1013.9 mb 0.00 in0.0 mm 0.00 in/hr0.0 mm/hr 0.00 in0.0 mm
04:15 AM 63.5°F17.5°C 53.9°F12.2°C 71% 8.4 mph N13.5 kmh N 11.4 mph18.3 kmh 29.94 in1013.9 mb 0.00 in0.0 mm 0.00 in/hr0.0 mm/hr 0.00 in0.0 mm
04:00 AM 63.9°F17.7°C 54.7°F12.6°C 72% 9.3 mph NNW15.0 kmh NNW 13.0 mph20.9 kmh 29.93 in1013.5 mb 0.00 in0.0 mm 0.00 in/hr0.0 mm/hr 0.00 in0.0 mm
03:45 AM 64.2°F17.9°C 55.4°F13.0°C 73% 8.7 mph NW14.0 kmh NW 11.4 mph18.3 kmh 29.93 in1013.5 mb 0.00 in0.0 mm 0.00 in/hr0.0 mm/hr 0.00 in0.0 mm
03:30 AM 64.4°F18.0°C 54.0°F12.2°C 69% 8.2 mph N13.2 kmh N 10.7 mph17.2 kmh 29.94 in1013.9 mb 0.00 in0.0 mm 0.00 in/hr0.0 mm/hr 0.00 in0.0 mm
03:15 AM 64.6°F18.1°C 55.0°F12.8°C 71% 9.8 mph NNW15.8 kmh NNW 13.0 mph20.9 kmh 29.93 in1013.5 mb 0.00 in0.0 mm 0.00 in/hr0.0 mm/hr 0.00 in0.0 mm
03:00 AM 64.6°F18.1°C 55.4°F13.0°C 72% 10.4 mph N16.7 kmh N 16.8 mph27.0 kmh 29.93 in1013.5 mb 0.00 in0.0 mm 0.00 in/hr0.0 mm/hr 0.00 in0.0 mm
02:45 AM 64.9°F18.3°C 56.8°F13.8°C 75% 10.1 mph N16.3 kmh N 13.6 mph21.9 kmh 29.93 in1013.5 mb 0.00 in0.0 mm 0.00 in/hr0.0 mm/hr 0.00 in0.0 mm
02:30 AM 64.9°F18.3°C 56.5°F13.6°C 74% 11.6 mph N18.7 kmh N 15.2 mph24.5 kmh 29.93 in1013.5 mb 0.00 in0.0 mm 0.00 in/hr0.0 mm/hr 0.00 in0.0 mm
02:15 AM 64.9°F18.3°C 57.9°F14.4°C 78% 9.9 mph N15.9 kmh N 14.5 mph23.3 kmh 29.93 in1013.5 mb 0.00 in0.0 mm 0.00 in/hr0.0 mm/hr 0.00 in0.0 mm
02:00 AM 64.9°F18.3°C 59.0°F15.0°C 81% 9.4 mph N15.1 kmh N 10.7 mph17.2 kmh 29.94 in1013.9 mb 0.00 in0.0 mm 0.00 in/hr0.0 mm/hr 0.00 in0.0 mm
01:45 AM 64.8°F18.2°C 60.2°F15.7°C 85% 8.3 mph NW13.4 kmh NW 11.4 mph18.3 kmh 29.93 in1013.5 mb 0.00 in0.0 mm 0.00 in/hr0.0 mm/hr 0.00 in0.0 mm
01:30 AM 64.8°F18.2°C 61.1°F16.2°C 88% 7.8 mph N12.6 kmh N 9.8 mph15.8 kmh 29.93 in1013.5 mb 0.00 in0.0 mm 0.00 in/hr0.0 mm/hr 0.00 in0.0 mm
01:15 AM 63.7°F17.6°C 61.6°F16.4°C 93% 7.7 mph N12.4 kmh N 13.6 mph21.9 kmh 29.93 in1013.5 mb 0.00 in0.0 mm 0.00 in/hr0.0 mm/hr 0.00 in0.0 mm
01:00 AM 61.3°F16.3°C 58.4°F14.7°C 90% 2.4 mph NW3.9 kmh NW 5.4 mph8.7 kmh 29.94 in1013.9 mb 0.00 in0.0 mm 0.00 in/hr0.0 mm/hr 0.00 in0.0 mm
12:45 AM 61.3°F16.3°C 58.1°F14.5°C 89% 0.8 mph W1.3 kmh W 1.6 mph2.6 kmh 29.94 in1013.9 mb 0.00 in0.0 mm 0.00 in/hr0.0 mm/hr 0.00 in0.0 mm
12:30 AM 61.5°F16.4°C 58.6°F14.8°C 90% 2.0 mph WSW3.2 kmh WSW 3.1 mph5.0 kmh 29.94 in1013.9 mb 0.00 in0.0 mm 0.00 in/hr0.0 mm/hr 0.00 in0.0 mm
12:15 AM 61.5°F16.4°C 58.9°F14.9°C 91% 2.1 mph W3.4 kmh W 3.1 mph5.0 kmh 29.94 in1013.9 mb 0.00 in0.0 mm 0.00 in/hr0.0 mm/hr 0.00 in0.0 mm
12:00 AM 61.7°F16.5°C 58.8°F14.9°C 90% 0.9 mph WSW1.4 kmh WSW 1.6 mph2.6 kmh 29.93 in1013.5 mb 0.00 in0.0 mm 0.00 in/hr0.0 mm/hr 0.00 in0.0 mm